Macdiarmid, Canada
Current Conditions -  °F | °C
As of 11:00 AM on Wednesday 22 Oct 2014 (Local Time) from CYGQ Reporting Station
Broken Clouds Broken Clouds  
Wind Chill: 34°   Ceiling: 25000
Heat Index: 41°   Visibility: 15mi
Dew Point: 36°   Wind: 12mph
Humidity: 81%   Direction: 190°S
Pressure: 30.27"   Gusts: NA
Location:  49.43°N, 88.12°W
Report Text: CYGQ 221500Z 19010KT 15SM FEW012 BKN250 05/02 A3027 RMK CF2CI2SLP270
Loading
Personal Weather Stations






























Interactive Weather Map
Tropical Storm Tracking
New forecast layout! Learn more

10-Day Weather Forecast

Advertisements
Track Severe Weather on mobile